Time;durP1;ratioP1;P1;durP2;ratioP2;P2;SDS_P1;SDS_P2;PMS_P1;PMS_P2;Temp;Humidity;BMP_temperature;BMP_pressure;BME280_temperature;BME280_humidity;BME280_pressure;Samples;Min_cycle;Max_cycle;Signal;HPM_P1;HPM_P2
2023/07/22 00:00:47;;;;;;;;;;;;;;;22.72;27.43;97910.91;4964460;28;894;-79
2023/07/22 00:03:12;;;;;;;;;;;;;;;22.53;27.43;97903.41;4997883;28;937;-78
2023/07/22 00:05:39;;;;;;;;;;;;;;;22.65;27.46;97908.31;4997846;28;839;-78
2023/07/22 00:08:04;;;;;;;;;;;;;;;22.70;27.20;97890.72;4980533;28;789;-78
2023/07/22 00:10:30;;;;;;;;;;;;;;;22.61;27.36;97899.13;4980943;28;945;-78
2023/07/22 00:12:56;;;;;;;;;;;;;;;22.72;27.27;97891.06;4956748;28;891;-78
2023/07/22 00:15:23;;;;;;;;;;;;;;;22.71;27.30;97886.63;4941289;29;1086;-78
2023/07/22 00:17:49;;;;;;;;;;;;;;;22.91;26.88;97882.78;4941161;29;1919;-78
2023/07/22 00:20:15;;;;;;;;;;;;;;;22.79;27.29;97881.50;4937746;29;1050;-78
2023/07/22 00:22:41;;;;;;;;;;;;;;;22.76;27.22;97871.09;4922096;29;1068;-79
2023/07/22 00:25:09;;;;;;;;;;;;;;;22.48;27.58;97872.81;4906257;29;1127;-79
2023/07/22 00:27:35;;;;;;;;;;;;;;;22.44;27.73;97872.94;4907036;29;1102;-79
2023/07/22 00:30:01;;;;;;;;;;;;;;;22.92;26.94;97861.66;4906074;29;1133;-78
2023/07/22 00:32:26;;;;;;;;;;;;;;;22.74;27.10;97857.38;4921970;29;859;-78
2023/07/22 00:34:52;;;;;;;;;;;;;;;22.87;26.66;97854.50;4922063;29;942;-79
2023/07/22 00:37:17;;;;;;;;;;;;;;;22.51;27.63;97857.72;4906136;29;1914;-79
2023/07/22 00:39:43;;;;;;;;;;;;;;;22.64;27.35;97847.19;4921723;29;950;-78
2023/07/22 00:42:08;;;;;;;;;;;;;;;22.91;27.11;97838.19;4921959;29;1039;-78
2023/07/22 00:44:34;;;;;;;;;;;;;;;22.62;27.51;97838.31;4936811;29;1003;-78
2023/07/22 00:46:59;;;;;;;;;;;;;;;22.71;27.23;97829.13;4957139;28;899;-78
2023/07/22 00:49:25;;;;;;;;;;;;;;;22.64;27.26;97833.00;4940799;29;1128;-78
2023/07/22 00:51:51;;;;;;;;;;;;;;;23.01;26.68;97836.22;4955221;28;1304;-79
2023/07/22 00:54:16;;;;;;;;;;;;;;;23.17;26.68;97838.91;4963932;28;1235;-78
2023/07/22 00:56:42;;;;;;;;;;;;;;;22.95;26.89;97835.19;4964977;28;1899;-78
2023/07/22 00:59:07;;;;;;;;;;;;;;;22.60;27.22;97835.94;4997622;28;907;-78
2023/07/22 01:01:33;;;;;;;;;;;;;;;22.52;27.50;97836.63;4964545;28;834;-78
2023/07/22 01:04:00;;;;;;;;;;;;;;;22.69;27.13;97826.75;4980448;28;931;-79
2023/07/22 01:06:28;;;;;;;;;;;;;;;22.72;27.26;97820.16;4980460;28;804;-78
2023/07/22 01:08:54;;;;;;;;;;;;;;;22.82;27.02;97818.19;4980443;28;1121;-78
2023/07/22 01:11:19;;;;;;;;;;;;;;;22.88;27.05;97817.19;4982613;28;948;-78
2023/07/22 01:13:45;;;;;;;;;;;;;;;22.96;26.84;97823.41;4951853;28;1203;-78
2023/07/22 01:16:10;;;;;;;;;;;;;;;22.93;27.01;97826.38;4968132;28;1953;-79
2023/07/22 01:18:36;;;;;;;;;;;;;;;22.67;27.46;97815.06;4983669;28;1116;-79
2023/07/22 01:21:01;;;;;;;;;;;;;;;22.57;27.42;97819.03;4984090;28;1195;-78
2023/07/22 01:23:28;;;;;;;;;;;;;;;22.92;27.06;97819.13;4967434;28;971;-79
2023/07/22 01:25:53;;;;;;;;;;;;;;;22.45;27.69;97819.84;4984614;28;788;-79
2023/07/22 01:28:20;;;;;;;;;;;;;;;22.67;27.43;97814.25;4927970;29;1589;-79
2023/07/22 01:30:46;;;;;;;;;;;;;;;22.62;27.28;97804.28;4944089;29;856;-78
2023/07/22 01:33:12;;;;;;;;;;;;;;;22.74;27.22;97805.50;4944052;29;1188;-78
2023/07/22 01:35:37;;;;;;;;;;;;;;;22.67;27.24;97803.72;4928264;29;806;-78
2023/07/22 01:38:03;;;;;;;;;;;;;;;22.60;27.27;97801.91;4927550;29;1964;-78
2023/07/22 01:40:28;;;;;;;;;;;;;;;22.67;27.02;97792.38;4943900;29;1156;-78
2023/07/22 01:42:54;;;;;;;;;;;;;;;22.61;27.48;97797.03;4943594;29;1203;-79
2023/07/22 01:45:19;;;;;;;;;;;;;;;22.76;27.12;97786.00;4944156;29;1159;-79
2023/07/22 01:47:45;;;;;;;;;;;;;;;22.39;27.83;97779.94;4959671;29;1201;-79
2023/07/22 01:50:10;;;;;;;;;;;;;;;22.77;27.13;97779.84;4959767;29;913;-79
2023/07/22 01:52:36;;;;;;;;;;;;;;;22.72;27.27;97773.97;4960050;29;1494;-79
2023/07/22 01:55:05;;;;;;;;;;;;;;;22.76;26.99;97781.13;4959356;29;1183;-78
2023/07/22 01:57:31;;;;;;;;;;;;;;;22.62;27.14;97771.03;4959776;29;1987;-78
2023/07/22 01:59:57;;;;;;;;;;;;;;;22.94;26.92;97765.53;4977587;28;1200;-79
2023/07/22 02:02:22;;;;;;;;;;;;;;;22.72;27.00;97780.44;4982261;28;1298;-78
2023/07/22 02:04:48;;;;;;;;;;;;;;;22.73;27.24;97775.56;4933639;28;1149;-79
2023/07/22 02:07:13;;;;;;;;;;;;;;;22.58;27.22;97780.91;4982178;28;924;-78
2023/07/22 02:09:40;;;;;;;;;;;;;;;22.90;26.94;97781.88;4982278;28;965;-79
2023/07/22 02:12:07;;;;;;;;;;;;;;;22.63;27.27;97788.84;4981993;28;908;-79
2023/07/22 02:14:33;;;;;;;;;;;;;;;22.53;27.32;97793.63;4966215;28;1483;-78
2023/07/22 02:16:58;;;;;;;;;;;;;;;22.58;27.41;97789.44;4981908;28;1907;-78
2023/07/22 02:19:24;;;;;;;;;;;;;;;22.44;27.60;97793.56;4966481;28;1493;-78
2023/07/22 02:21:49;;;;;;;;;;;;;;;22.44;27.39;97792.75;4982311;28;1223;-78
2023/07/22 02:24:15;;;;;;;;;;;;;;;22.77;27.15;97794.03;4966276;28;1085;-78
2023/07/22 02:26:41;;;;;;;;;;;;;;;22.87;27.08;97792.88;4966887;28;1006;-78
2023/07/22 02:29:07;;;;;;;;;;;;;;;22.74;27.02;97788.47;4978341;28;1227;-79
2023/07/22 02:31:33;;;;;;;;;;;;;;;22.85;27.07;97788.94;4962757;28;1031;-78
2023/07/22 02:33:58;;;;;;;;;;;;;;;22.56;27.51;97789.88;4946176;28;1448;-78
2023/07/22 02:36:24;;;;;;;;;;;;;;;22.49;27.38;97789.34;4961936;28;1880;-79
2023/07/22 02:38:49;;;;;;;;;;;;;;;22.41;27.36;97793.66;4961874;28;975;-78
2023/07/22 02:41:15;;;;;;;;;;;;;;;22.47;27.26;97803.19;4962140;28;760;-78
2023/07/22 02:43:41;;;;;;;;;;;;;;;22.61;27.29;97802.69;4977870;28;982;-78
2023/07/22 02:46:07;;;;;;;;;;;;;;;22.51;27.27;97803.84;4962294;28;885;-78
2023/07/22 02:48:33;;;;;;;;;;;;;;;22.58;27.17;97810.06;4945714;28;1236;-78
2023/07/22 02:51:05;;;;;;;;;;;;;;;22.62;27.13;97798.59;4962012;28;935;-78
2023/07/22 02:53:31;;;;;;;;;;;;;;;22.76;27.08;97797.34;4961602;28;1228;-79
2023/07/22 02:55:56;;;;;;;;;;;;;;;22.59;27.37;97793.88;4943784;29;1120;-79
2023/07/22 02:58:22;;;;;;;;;;;;;;;22.60;27.03;97789.78;4926494;29;1982;-78
2023/07/22 03:00:47;;;;;;;;;;;;;;;22.56;27.33;97794.78;4942258;29;900;-79
2023/07/22 03:03:13;;;;;;;;;;;;;;;22.82;26.97;97807.63;4941827;29;837;-78
2023/07/22 03:05:38;;;;;;;;;;;;;;;22.85;27.00;97818.09;4922148;29;1155;-79
2023/07/22 03:08:04;;;;;;;;;;;;;;;22.54;27.43;97820.75;4938283;29;1340;-78
2023/07/22 03:10:29;;;;;;;;;;;;;;;22.45;27.42;97842.53;4938080;29;936;-79
2023/07/22 03:12:55;;;;;;;;;;;;;;;22.43;27.41;97859.19;4954117;29;1698;-79
2023/07/22 03:15:22;;;;;;;;;;;;;;;22.66;26.89;97856.00;4937975;29;1110;-78
2023/07/22 03:17:48;;;;;;;;;;;;;;;22.65;27.30;97882.00;4938024;29;1981;-79
2023/07/22 03:20:18;;;;;;;;;;;;;;;22.62;27.34;97889.34;4937739;29;1264;-79
2023/07/22 03:22:44;;;;;;;;;;;;;;;22.91;26.66;97885.63;4937178;29;1193;-78
2023/07/22 03:25:10;;;;;;;;;;;;;;;22.69;26.82;97882.66;4937802;29;1145;-79
2023/07/22 03:27:36;;;;;;;;;;;;;;;22.51;27.38;97883.25;4953569;29;924;-79
2023/07/22 03:30:02;;;;;;;;;;;;;;;22.63;27.25;97859.75;4925665;29;847;-79
2023/07/22 03:32:27;;;;;;;;;;;;;;;22.44;27.51;97866.47;4957773;29;1338;-78
2023/07/22 03:34:53;;;;;;;;;;;;;;;22.67;27.00;97851.91;4941471;29;924;-78
2023/07/22 03:37:20;;;;;;;;;;;;;;;22.62;27.13;97844.00;4989777;28;1910;-78
2023/07/22 03:39:45;;;;;;;;;;;;;;;22.51;27.28;97832.22;4976485;28;1239;-79
2023/07/22 03:42:11;;;;;;;;;;;;;;;22.70;26.94;97831.16;4976762;28;945;-79
2023/07/22 03:44:36;;;;;;;;;;;;;;;22.73;26.93;97838.75;4960461;28;1376;-78
2023/07/22 03:47:02;;;;;;;;;;;;;;;22.47;27.56;97863.50;4977104;28;807;-78
2023/07/22 03:49:28;;;;;;;;;;;;;;;22.79;27.16;97845.41;4976873;28;1219;-79
2023/07/22 03:51:53;;;;;;;;;;;;;;;22.59;27.39;97850.59;4977281;28;815;-78
2023/07/22 03:54:19;;;;;;;;;;;;;;;22.76;26.73;97843.50;4941279;29;1156;-78
2023/07/22 03:56:44;;;;;;;;;;;;;;;22.75;27.12;97847.59;4957240;29;1906;-79
2023/07/22 03:59:10;;;;;;;;;;;;;;;22.55;27.36;97847.06;4918999;29;1075;-78
2023/07/22 04:01:35;;;;;;;;;;;;;;;22.52;27.14;97848.75;4887695;29;979;-79
2023/07/22 04:04:01;;;;;;;;;;;;;;;22.65;27.39;97845.13;4903385;29;1536;-78
2023/07/22 04:06:26;;;;;;;;;;;;;;;22.73;27.10;97830.22;4919278;29;1136;-78
2023/07/22 04:08:52;;;;;;;;;;;;;;;22.81;27.06;97828.75;4919060;29;1340;-79
2023/07/22 04:11:17;;;;;;;;;;;;;;;22.69;27.05;97838.09;4947143;29;1247;-79
2023/07/22 04:13:43;;;;;;;;;;;;;;;22.69;27.28;97843.78;4941009;29;1138;-79
2023/07/22 04:16:08;;;;;;;;;;;;;;;22.75;27.05;97847.59;4941284;29;1915;-79
2023/07/22 04:18:34;;;;;;;;;;;;;;;22.58;26.99;97844.09;4956724;29;1032;-80
2023/07/22 04:21:00;;;;;;;;;;;;;;;22.77;27.08;97839.41;4934374;29;1236;-79
2023/07/22 04:23:26;;;;;;;;;;;;;;;22.50;27.34;97831.41;4937380;29;1135;-79
2023/07/22 04:25:51;;;;;;;;;;;;;;;22.70;27.12;97828.34;4916425;29;1596;-79
2023/07/22 04:28:17;;;;;;;;;;;;;;;22.67;27.23;97834.13;4926881;29;1378;-79
2023/07/22 04:30:42;;;;;;;;;;;;;;;22.75;26.82;97830.59;4937535;29;891;-79
2023/07/22 04:33:10;;;;;;;;;;;;;;;22.80;27.07;97832.84;4921791;29;1160;-79
2023/07/22 04:35:40;;;;;;;;;;;;;;;22.57;27.38;97836.06;4923688;29;880;-79
2023/07/22 04:38:06;;;;;;;;;;;;;;;22.53;27.50;97836.16;4956786;29;1907;-79
2023/07/22 04:40:31;;;;;;;;;;;;;;;22.41;27.57;97844.69;4957200;29;1317;-80
2023/07/22 04:42:57;;;;;;;;;;;;;;;22.73;27.18;97843.63;4956572;29;804;-77
2023/07/22 04:45:25;;;;;;;;;;;;;;;22.63;27.25;97842.72;4959243;28;1113;-77
2023/07/22 04:47:51;;;;;;;;;;;;;;;22.74;27.20;97851.69;4931517;29;1560;-77
2023/07/22 04:50:17;;;;;;;;;;;;;;;22.36;27.67;97849.69;4928147;29;1026;-76
2023/07/22 04:52:43;;;;;;;;;;;;;;;22.57;27.26;97844.56;4976455;28;881;-77
2023/07/22 04:55:09;;;;;;;;;;;;;;;22.76;27.02;97849.19;4967505;28;924;-77
2023/07/22 04:57:35;;;;;;;;;;;;;;;22.51;27.45;97854.91;4984921;28;1898;-77
2023/07/22 05:00:03;;;;;;;;;;;;;;;22.73;27.10;97843.63;4950954;28;903;-76
2023/07/22 05:02:30;;;;;;;;;;;;;;;22.82;27.02;97857.91;4951703;28;891;-78
2023/07/22 05:04:56;;;;;;;;;;;;;;;22.59;27.25;97861.94;4951609;28;864;-77
2023/07/22 05:07:21;;;;;;;;;;;;;;;22.49;27.48;97863.06;4967542;28;1105;-78
2023/07/22 05:09:51;;;;;;;;;;;;;;;22.83;27.09;97862.34;4983945;28;1842;-78
2023/07/22 05:12:17;;;;;;;;;;;;;;;22.75;27.42;97864.63;4967568;28;1148;-78
2023/07/22 05:14:42;;;;;;;;;;;;;;;22.97;27.09;97863.94;4969380;28;1052;-78
2023/07/22 05:17:07;;;;;;;;;;;;;;;22.86;27.32;97858.59;4970394;28;1899;-78
2023/07/22 05:19:33;;;;;;;;;;;;;;;22.62;27.67;97866.66;4986451;28;981;-78
2023/07/22 05:21:58;;;;;;;;;;;;;;;22.87;27.18;97849.63;4986150;28;1814;-78
2023/07/22 05:24:24;;;;;;;;;;;;;;;22.73;27.23;97852.94;4983987;28;866;-78
2023/07/22 05:26:49;;;;;;;;;;;;;;;22.81;27.43;97844.97;4944014;29;987;-78
2023/07/22 05:29:15;;;;;;;;;;;;;;;22.94;27.19;97842.13;4943395;29;938;-78
2023/07/22 05:31:42;;;;;;;;;;;;;;;22.61;27.60;97836.72;4941797;28;1957;-78
2023/07/22 05:34:07;;;;;;;;;;;;;;;22.62;27.61;97833.44;4946322;28;961;-79
2023/07/22 05:36:33;;;;;;;;;;;;;;;22.83;27.39;97837.59;4962448;28;1993;-78
2023/07/22 05:38:58;;;;;;;;;;;;;;;22.73;27.43;97838.75;4947058;29;879;-78
2023/07/22 05:41:24;;;;;;;;;;;;;;;22.90;27.24;97838.63;4946979;28;1152;-78
2023/07/22 05:43:49;;;;;;;;;;;;;;;22.86;27.45;97848.03;4946322;29;964;-78
2023/07/22 05:46:15;;;;;;;;;;;;;;;22.94;27.15;97839.28;4947027;29;832;-79
2023/07/22 05:48:40;;;;;;;;;;;;;;;22.69;27.65;97843.78;4946423;29;1203;-78
2023/07/22 05:51:06;;;;;;;;;;;;;;;22.47;28.16;97845.69;4947082;29;973;-79
2023/07/22 05:53:32;;;;;;;;;;;;;;;22.54;27.90;97842.66;4927154;29;1122;-78
2023/07/22 05:55:58;;;;;;;;;;;;;;;22.65;27.66;97828.91;4927817;29;942;-78
2023/07/22 05:58:23;;;;;;;;;;;;;;;22.72;27.45;97825.03;4969207;28;1967;-78
2023/07/22 06:00:49;;;;;;;;;;;;;;;22.80;27.54;97818.66;4998143;28;919;-78
2023/07/22 06:03:14;;;;;;;;;;;;;;;22.71;27.72;97812.91;4981700;28;1049;-78
2023/07/22 06:05:40;;;;;;;;;;;;;;;22.99;27.02;97816.00;4998098;28;1067;-78
2023/07/22 06:08:05;;;;;;;;;;;;;;;22.94;27.32;97808.09;4981898;28;1334;-78
2023/07/22 06:10:31;;;;;;;;;;;;;;;22.77;27.38;97794.03;4979543;28;1531;-78
2023/07/22 06:12:57;;;;;;;;;;;;;;;22.72;27.88;97799.50;4940313;29;940;-79
2023/07/22 06:15:23;;;;;;;;;;;;;;;23.05;27.25;97797.16;4904385;29;1645;-79
2023/07/22 06:17:48;;;;;;;;;;;;;;;22.97;27.41;97790.16;4905030;29;1911;-77
2023/07/22 06:20:14;;;;;;;;;;;;;;;22.73;27.79;97790.53;4902296;29;978;-77
2023/07/22 06:22:39;;;;;;;;;;;;;;;23.00;27.25;97786.38;4886125;29;1383;-77
2023/07/22 06:25:05;;;;;;;;;;;;;;;22.67;27.85;97792.38;4902034;29;846;-77
2023/07/22 06:27:31;;;;;;;;;;;;;;;22.72;27.96;97791.78;4902202;29;1196;-77
2023/07/22 06:29:56;;;;;;;;;;;;;;;22.60;27.89;97789.78;4886342;29;1039;-77
2023/07/22 06:32:22;;;;;;;;;;;;;;;22.83;27.74;97785.75;4886553;29;1256;-77
2023/07/22 06:34:47;;;;;;;;;;;;;;;22.81;27.93;97789.03;4886336;29;987;-77
2023/07/22 06:37:13;;;;;;;;;;;;;;;22.70;28.08;97799.97;4903423;29;1927;-77
2023/07/22 06:39:38;;;;;;;;;;;;;;;22.70;27.84;97799.97;4920649;29;987;-77
2023/07/22 06:42:04;;;;;;;;;;;;;;;22.97;27.57;97801.50;4920649;29;1349;-76
2023/07/22 06:44:30;;;;;;;;;;;;;;;22.66;28.22;97807.81;4946673;28;1310;-77
2023/07/22 06:46:55;;;;;;;;;;;;;;;22.79;28.08;97808.53;4946328;28;1126;-77
2023/07/22 06:49:21;;;;;;;;;;;;;;;22.81;27.88;97817.41;4939119;29;935;-77
2023/07/22 06:51:46;;;;;;;;;;;;;;;23.00;27.83;97814.75;4923893;29;1281;-77
2023/07/22 06:54:12;;;;;;;;;;;;;;;22.95;27.82;97809.66;4923464;29;934;-77
2023/07/22 06:56:37;;;;;;;;;;;;;;;22.84;27.99;97816.47;4923644;29;1922;-78
2023/07/22 06:59:03;;;;;;;;;;;;;;;22.76;28.30;97811.53;4922960;29;850;-78
2023/07/22 07:01:28;;;;;;;;;;;;;;;22.88;27.90;97822.06;4923501;29;1612;-78
2023/07/22 07:03:54;;;;;;;;;;;;;;;22.78;28.27;97814.69;4925752;29;914;-77
2023/07/22 07:06:19;;;;;;;;;;;;;;;22.77;28.10;97811.06;4927943;29;1489;-77
2023/07/22 07:08:45;;;;;;;;;;;;;;;22.96;28.09;97814.13;4922409;29;1639;-78
2023/07/22 07:11:10;;;;;;;;;;;;;;;22.78;28.04;97812.63;4940571;29;889;-78
2023/07/22 07:13:36;;;;;;;;;;;;;;;22.79;28.15;97808.53;4934481;29;1596;-78
2023/07/22 07:16:20;;;;;;;;;;;;;;;22.92;27.96;97813.44;4947536;28;1467;-77
2023/07/22 07:18:46;;;;;;;;;;;;;;;22.98;28.04;97808.75;4953327;29;1648;-78
2023/07/22 07:21:11;;;;;;;;;;;;;;;22.86;28.19;97808.31;4957862;29;1107;-78
2023/07/22 07:23:37;;;;;;;;;;;;;;;22.68;28.64;97818.69;4957735;29;900;-77
2023/07/22 07:26:02;;;;;;;;;;;;;;;23.01;27.82;97822.84;4936122;29;1646;-78
2023/07/22 07:28:28;;;;;;;;;;;;;;;22.93;28.16;97827.16;4938516;29;874;-78
2023/07/22 07:30:53;;;;;;;;;;;;;;;22.77;28.37;97828.06;4938940;29;1020;-77
2023/07/22 07:33:19;;;;;;;;;;;;;;;22.81;28.30;97817.41;4938117;29;1070;-77
2023/07/22 07:35:47;;;;;;;;;;;;;;;23.17;27.96;97827.53;4938995;29;890;-78
2023/07/22 07:38:13;;;;;;;;;;;;;;;23.05;28.04;97826.34;4928348;29;2076;-77
2023/07/22 07:40:39;;;;;;;;;;;;;;;23.01;28.22;97822.03;4919500;29;1018;-77
2023/07/22 07:43:04;;;;;;;;;;;;;;;23.23;27.86;97805.81;4919333;29;926;-78
2023/07/22 07:45:30;;;;;;;;;;;;;;;22.74;28.62;97812.00;4937126;29;1168;-78
2023/07/22 07:47:55;;;;;;;;;;;;;;;22.86;28.44;97814.00;4957712;28;851;-78
2023/07/22 07:50:21;;;;;;;;;;;;;;;22.79;28.33;97814.22;4957330;28;1138;-77
2023/07/22 07:52:46;;;;;;;;;;;;;;;23.15;27.90;97807.31;4941715;29;830;-78
2023/07/22 07:55:12;;;;;;;;;;;;;;;22.88;28.39;97811.50;4925340;29;965;-78
2023/07/22 07:57:37;;;;;;;;;;;;;;;23.09;28.33;97803.50;4925690;29;1911;-78
2023/07/22 08:00:03;;;;;;;;;;;;;;;23.11;28.04;97801.00;4941051;29;960;-77
2023/07/22 08:02:30;;;;;;;;;;;;;;;22.95;28.41;97806.81;4959411;28;904;-78
2023/07/22 08:04:55;;;;;;;;;;;;;;;22.54;29.09;97808.63;4945609;28;1180;-78
2023/07/22 08:07:21;;;;;;;;;;;;;;;22.79;28.76;97807.75;4961643;28;849;-77
2023/07/22 08:09:48;;;;;;;;;;;;;;;22.80;29.02;97803.69;4978463;28;968;-78
2023/07/22 08:12:14;;;;;;;;;;;;;;;22.66;29.09;97804.97;4961643;28;1057;-77
2023/07/22 08:14:40;;;;;;;;;;;;;;;22.94;28.33;97803.19;4965009;28;1231;-77
2023/07/22 08:17:05;;;;;;;;;;;;;;;23.03;28.56;97789.09;4994815;28;1894;-78
2023/07/22 08:19:31;;;;;;;;;;;;;;;23.16;28.38;97797.56;4956466;28;948;-77
2023/07/22 08:21:56;;;;;;;;;;;;;;;22.85;28.69;97801.06;4940822;29;1055;-77
2023/07/22 08:24:22;;;;;;;;;;;;;;;23.12;28.35;97791.22;4909130;29;1296;-78
2023/07/22 08:26:47;;;;;;;;;;;;;;;22.87;28.87;97792.09;4956848;29;992;-78
2023/07/22 08:29:13;;;;;;;;;;;;;;;23.16;28.15;97789.06;4924970;29;1007;-78
2023/07/22 08:31:38;;;;;;;;;;;;;;;22.97;28.50;97795.84;4941231;29;958;-77
2023/07/22 08:34:04;;;;;;;;;;;;;;;23.15;28.30;97795.97;4956686;29;907;-78
2023/07/22 08:36:29;;;;;;;;;;;;;;;23.19;28.01;97790.97;4956794;29;1969;-77
2023/07/22 08:38:55;;;;;;;;;;;;;;;22.99;28.49;97799.00;4927895;29;1493;-77
2023/07/22 08:41:22;;;;;;;;;;;;;;;22.99;28.74;97804.66;4937584;29;2130;-78
2023/07/22 08:43:48;;;;;;;;;;;;;;;23.01;28.54;97796.50;4940236;29;889;-77
2023/07/22 08:46:13;;;;;;;;;;;;;;;22.96;28.76;97799.94;4940895;29;1406;-77
2023/07/22 08:48:40;;;;;;;;;;;;;;;23.19;28.16;97801.53;4940780;29;962;-78
2023/07/22 08:51:17;;;;;;;;;;;;;;;23.10;28.33;97799.41;4956195;28;955;-78
2023/07/22 08:53:46;;;;;;;;;;;;;;;23.19;28.33;97799.47;4960673;28;829;-78
2023/07/22 08:56:12;;;;;;;;;;;;;;;23.29;28.36;97806.81;4955892;28;1970;-77
2023/07/22 08:58:37;;;;;;;;;;;;;;;22.99;28.73;97799.78;4980266;28;961;-77
2023/07/22 09:01:03;;;;;;;;;;;;;;;23.05;28.45;97788.63;4997445;28;893;-77
2023/07/22 09:03:28;;;;;;;;;;;;;;;22.83;28.74;97786.53;4980188;28;946;-77
2023/07/22 09:05:54;;;;;;;;;;;;;;;23.23;28.29;97785.97;4963978;28;897;-77
2023/07/22 09:08:20;;;;;;;;;;;;;;;23.24;28.25;97792.41;4977666;28;1436;-77
2023/07/22 09:10:46;;;;;;;;;;;;;;;23.02;28.81;97783.91;4997790;28;717;-77
2023/07/22 09:13:12;;;;;;;;;;;;;;;23.12;28.64;97779.88;4997544;28;855;-78
2023/07/22 09:15:38;;;;;;;;;;;;;;;23.04;28.54;97773.66;4997100;28;1798;-77
2023/07/22 09:18:04;;;;;;;;;;;;;;;22.97;28.83;97768.25;4979128;28;1977;-77
2023/07/22 09:20:29;;;;;;;;;;;;;;;22.79;29.07;97768.03;4979975;28;1282;-77
2023/07/22 09:22:55;;;;;;;;;;;;;;;23.17;28.58;97770.00;4985330;28;1795;-77
2023/07/22 09:25:21;;;;;;;;;;;;;;;22.95;28.95;97775.63;4960401;28;940;-77
2023/07/22 09:27:47;;;;;;;;;;;;;;;22.87;29.44;97763.72;4978322;28;1648;-77
2023/07/22 09:30:23;;;;;;;;;;;;;;;22.75;29.31;97767.41;4960784;28;854;-77
2023/07/22 09:32:50;;;;;;;;;;;;;;;22.80;29.60;97753.41;4971108;28;1592;-78
2023/07/22 09:35:16;;;;;;;;;;;;;;;23.25;28.94;97755.06;4930928;29;1502;-78
2023/07/22 09:37:42;;;;;;;;;;;;;;;23.08;29.19;97756.50;4924271;29;1907;-78
2023/07/22 09:40:26;;;;;;;;;;;;;;;23.32;28.74;97754.00;4907440;29;1702;-78
2023/07/22 09:42:55;;;;;;;;;;;;;;;23.09;29.04;97741.06;4907742;29;1004;-78
2023/07/22 09:45:24;;;;;;;;;;;;;;;22.88;29.47;97749.09;4928656;29;2028;-77
2023/07/22 09:47:50;;;;;;;;;;;;;;;23.16;29.06;97740.81;4936693;29;1580;-77
2023/07/22 09:50:19;;;;;;;;;;;;;;;23.21;29.11;97740.22;4924546;29;1634;-78
2023/07/22 09:52:45;;;;;;;;;;;;;;;23.36;28.83;97744.09;4924484;29;1537;-77
2023/07/22 09:55:12;;;;;;;;;;;;;;;23.29;29.02;97743.56;4926089;29;1604;-77
2023/07/22 09:57:38;;;;;;;;;;;;;;;23.14;29.25;97741.25;4929511;29;1903;-78
2023/07/22 10:00:04;;;;;;;;;;;;;;;23.20;29.29;97743.50;4910244;29;1536;-78
2023/07/22 10:02:38;;;;;;;;;;;;;;;23.00;29.39;97732.47;4902297;29;1493;-78
2023/07/22 10:05:03;;;;;;;;;;;;;;;23.14;29.54;97726.28;4918490;29;1549;-77
2023/07/22 10:07:30;;;;;;;;;;;;;;;23.28;29.25;97731.44;4956576;28;1496;-79
2023/07/22 10:09:55;;;;;;;;;;;;;;;23.02;29.63;97732.81;4935666;29;1497;-78
2023/07/22 10:12:21;;;;;;;;;;;;;;;23.24;29.27;97725.09;4959857;29;914;-78
2023/07/22 10:14:46;;;;;;;;;;;;;;;23.29;29.19;97733.00;4943696;29;938;-78
2023/07/22 10:17:13;;;;;;;;;;;;;;;23.22;29.33;97710.56;4943071;29;1921;-77
2023/07/22 10:19:38;;;;;;;;;;;;;;;23.45;28.92;97651.69;4959492;29;1000;-77
2023/07/22 10:22:04;;;;;;;;;;;;;;;23.31;29.10;97724.84;4959443;28;1054;-77
2023/07/22 10:24:30;;;;;;;;;;;;;;;23.09;29.79;97712.69;4959034;29;927;-77
2023/07/22 10:26:55;;;;;;;;;;;;;;;23.18;29.58;97709.91;4959265;28;889;-77
2023/07/22 10:29:21;;;;;;;;;;;;;;;23.42;29.07;97712.28;4974795;28;958;-78
2023/07/22 10:31:52;;;;;;;;;;;;;;;23.32;29.21;97702.91;4958934;29;1251;-78
2023/07/22 10:34:20;;;;;;;;;;;;;;;23.50;28.85;97717.19;4928787;28;896;-78
2023/07/22 10:36:46;;;;;;;;;;;;;;;23.06;29.56;97714.41;4946301;28;1907;-78
2023/07/22 10:39:16;;;;;;;;;;;;;;;23.32;28.94;97715.06;4934614;29;1531;-78
2023/07/22 10:41:42;;;;;;;;;;;;;;;23.37;29.09;97711.63;4973819;28;1630;-78
2023/07/22 10:44:07;;;;;;;;;;;;;;;23.35;29.08;97719.78;4976983;28;1621;-77
2023/07/22 10:46:33;;;;;;;;;;;;;;;23.29;29.15;97707.44;4962177;28;1567;-77
2023/07/22 10:49:11;;;;;;;;;;;;;;;23.38;28.98;97704.69;4972073;28;1590;-77
2023/07/22 10:51:37;;;;;;;;;;;;;;;23.29;28.98;97715.97;4995602;28;929;-78
2023/07/22 10:54:03;;;;;;;;;;;;;;;23.46;28.79;97707.22;4982249;28;866;-77
2023/07/22 10:56:28;;;;;;;;;;;;;;;23.31;29.08;97713.47;4999412;28;1977;-78
2023/07/22 10:58:54;;;;;;;;;;;;;;;23.42;28.97;97729.31;4941988;29;991;-77
2023/07/22 11:01:28;;;;;;;;;;;;;;;23.11;29.33;97724.38;4958645;29;928;-78
2023/07/22 11:04:12;;;;;;;;;;;;;;;23.12;29.13;97711.75;4939072;29;971;-78
2023/07/22 11:06:44;;;;;;;;;;;;;;;23.16;29.17;97712.44;4939603;29;1160;-77
2023/07/22 11:09:34;;;;;;;;;;;;;;;23.34;28.75;97709.69;4938990;29;912;-78
2023/07/22 11:12:08;;;;;;;;;;;;;;;23.28;28.96;97720.06;4923665;29;1180;-77
2023/07/22 11:14:44;;;;;;;;;;;;;;;23.17;29.00;97714.00;4923087;29;1348;-77
2023/07/22 11:17:10;;;;;;;;;;;;;;;23.08;29.29;97705.44;4923568;29;1906;-77
2023/07/22 11:19:36;;;;;;;;;;;;;;;23.08;29.36;97705.44;4923329;29;946;-77
2023/07/22 11:22:02;;;;;;;;;;;;;;;23.42;28.64;97709.44;4923364;29;1987;-78
2023/07/22 11:24:28;;;;;;;;;;;;;;;23.40;28.54;97705.00;4923069;29;1816;-77
2023/07/22 11:26:53;;;;;;;;;;;;;;;23.28;28.79;97694.53;4923357;29;1034;-78
2023/07/22 11:29:19;;;;;;;;;;;;;;;23.45;28.86;97694.28;4949428;28;756;-78
2023/07/22 11:31:46;;;;;;;;;;;;;;;23.19;29.05;97705.81;4938896;29;1213;-77
2023/07/22 11:34:12;;;;;;;;;;;;;;;23.24;28.84;97708.06;4926978;29;1309;-78
2023/07/22 11:36:37;;;;;;;;;;;;;;;23.25;29.12;97706.78;4926356;29;1989;-78
2023/07/22 11:39:06;;;;;;;;;;;;;;;23.28;28.97;97713.59;4919530;29;879;-78
2023/07/22 11:41:32;;;;;;;;;;;;;;;23.15;29.14;97710.81;4904049;29;915;-78
2023/07/22 11:43:58;;;;;;;;;;;;;;;23.25;28.88;97703.94;4903844;29;827;-77
2023/07/22 11:46:24;;;;;;;;;;;;;;;23.23;28.94;97706.47;4903946;29;828;-77
2023/07/22 11:48:50;;;;;;;;;;;;;;;23.27;28.93;97695.78;4919372;29;868;-78
2023/07/22 11:51:17;;;;;;;;;;;;;;;23.32;28.97;97702.91;4903954;29;852;-77
2023/07/22 11:53:43;;;;;;;;;;;;;;;23.22;28.81;97693.53;4903426;29;938;-78
2023/07/22 11:56:08;;;;;;;;;;;;;;;22.99;29.10;97694.00;4917530;29;944;-78
2023/07/22 11:58:35;;;;;;;;;;;;;;;23.24;28.83;97685.34;4903531;29;1977;-78
2023/07/22 12:01:07;;;;;;;;;;;;;;;23.42;28.72;97683.88;4903816;29;806;-78
2023/07/22 12:03:33;;;;;;;;;;;;;;;23.31;28.76;97696.44;4919431;29;966;-78
2023/07/22 12:06:03;;;;;;;;;;;;;;;23.20;29.05;97698.09;4922537;29;983;-77
2023/07/22 12:08:28;;;;;;;;;;;;;;;23.31;28.77;97704.13;4922262;29;1100;-78
2023/07/22 12:11:00;;;;;;;;;;;;;;;23.36;28.81;97698.69;4968720;28;1146;-78
2023/07/22 12:13:25;;;;;;;;;;;;;;;23.46;28.46;97705.19;4960368;28;1356;-78
2023/07/22 12:16:04;;;;;;;;;;;;;;;23.38;28.76;97696.16;4976426;28;963;-78
2023/07/22 12:18:45;;;;;;;;;;;;;;;23.38;28.40;97693.31;4960411;28;1910;-77
2023/07/22 12:21:11;;;;;;;;;;;;;;;23.25;28.75;97703.94;4966489;28;1255;-78
2023/07/22 12:23:36;;;;;;;;;;;;;;;23.08;29.26;97705.44;4957222;29;1112;-78
2023/07/22 12:26:02;;;;;;;;;;;;;;;23.24;28.91;97685.34;4957034;29;935;-78
2023/07/22 12:28:28;;;;;;;;;;;;;;;23.11;29.22;97682.59;4956825;29;994;-78
2023/07/22 12:30:54;;;;;;;;;;;;;;;23.05;29.34;97695.00;4957001;29;830;-78
2023/07/22 12:33:20;;;;;;;;;;;;;;;22.99;29.37;97697.63;4942142;28;1544;-78
2023/07/22 12:35:45;;;;;;;;;;;;;;;23.12;29.10;97703.25;4957000;29;811;-78
2023/07/22 12:38:11;;;;;;;;;;;;;;;22.91;29.39;97689.88;4941179;29;1910;-78
2023/07/22 12:40:36;;;;;;;;;;;;;;;23.10;28.98;97688.72;4941090;29;1020;-78
2023/07/22 12:43:02;;;;;;;;;;;;;;;23.04;28.86;97690.56;4976675;28;982;-78
2023/07/22 12:45:28;;;;;;;;;;;;;;;23.30;28.64;97699.72;4965599;28;1579;-78
2023/07/22 12:47:54;;;;;;;;;;;;;;;22.98;29.09;97675.41;4995932;28;1512;-78
2023/07/22 12:50:19;;;;;;;;;;;;;;;23.04;28.81;97676.38;4980363;28;836;-78
2023/07/22 12:52:45;;;;;;;;;;;;;;;23.22;28.57;97670.84;4964365;28;1251;-78
2023/07/22 12:55:10;;;;;;;;;;;;;;;23.10;28.95;97668.84;4980258;28;1192;-78